createdAt,value
2018-09-16T00:01:54.232Z,97338.08
2018-09-16T00:05:18.325Z,97336.34
2018-09-16T00:08:42.289Z,97334.08
2018-09-16T00:12:06.277Z,97328.12
2018-09-16T00:15:30.193Z,97324.71
2018-09-16T00:18:54.097Z,97321.24
2018-09-16T00:22:17.975Z,97321.73
2018-09-16T00:25:41.856Z,97326.05
2018-09-16T00:29:05.757Z,97325.45
2018-09-16T00:32:34.859Z,97326.53
2018-09-16T00:35:58.711Z,97324.20
2018-09-16T00:39:22.619Z,97329.70
2018-09-16T00:42:46.489Z,97329.88
2018-09-16T00:46:10.350Z,97330.39
2018-09-16T00:49:34.243Z,97323.43
2018-09-16T00:52:58.183Z,97321.75
2018-09-16T00:56:22.167Z,97319.23
2018-09-16T00:59:46.107Z,97316.77
2018-09-16T01:03:10.052Z,97316.91
2018-09-16T01:06:38.131Z,97314.97
2018-09-16T01:10:02.341Z,97314.80
2018-09-16T01:13:26.387Z,97309.97
2018-09-16T01:16:50.232Z,97299.30
2018-09-16T01:20:14.081Z,97308.20
2018-09-16T01:23:37.965Z,97301.81
2018-09-16T01:27:01.871Z,97299.69
2018-09-16T01:30:25.765Z,97297.98
2018-09-16T01:33:49.769Z,97307.06
2018-09-16T01:37:18.909Z,97299.32
2018-09-16T01:40:42.852Z,97299.54
2018-09-16T01:44:06.719Z,97292.84
2018-09-16T01:47:30.577Z,97293.41
2018-09-16T01:50:54.487Z,97289.23
2018-09-16T01:54:18.423Z,97288.73
2018-09-16T01:57:42.305Z,97277.84
2018-09-16T02:01:06.435Z,97283.80
2018-09-16T02:04:30.483Z,97276.33
2018-09-16T02:07:54.998Z,97279.14
2018-09-16T02:11:19.058Z,97272.31
2018-09-16T02:14:43.071Z,97268.57
2018-09-16T02:18:07.001Z,97268.52
2018-09-16T02:21:30.860Z,97274.00
2018-09-16T02:24:54.726Z,97275.53
2018-09-16T02:28:18.602Z,97267.63
2018-09-16T02:31:42.515Z,97259.01
2018-09-16T02:35:06.433Z,97262.95
2018-09-16T02:38:30.327Z,97256.94
2018-09-16T02:41:54.195Z,97251.88
2018-09-16T02:45:18.094Z,97251.17
2018-09-16T02:48:42.108Z,97244.00
2018-09-16T02:52:06.116Z,97247.27
2018-09-16T02:55:30.191Z,97234.61
2018-09-16T02:58:54.173Z,97241.99
2018-09-16T03:02:18.179Z,97233.88
2018-09-16T03:07:17.345Z,97230.46
2018-09-16T03:10:41.380Z,97228.25
2018-09-16T03:14:05.369Z,97230.00
2018-09-16T03:17:29.429Z,97227.89
2018-09-16T03:20:53.346Z,97225.55
2018-09-16T03:24:17.224Z,97224.63
2018-09-16T03:27:41.143Z,97222.35
2018-09-16T03:31:05.155Z,97225.63
2018-09-16T03:34:29.206Z,97231.55
2018-09-16T03:37:53.124Z,97225.72
2018-09-16T03:41:17.103Z,97224.38
2018-09-16T03:44:41.088Z,97227.34
2018-09-16T03:48:05.084Z,97228.70
2018-09-16T03:51:28.997Z,97222.16
2018-09-16T03:54:52.884Z,97226.48
2018-09-16T03:58:16.765Z,97216.91
2018-09-16T04:01:40.658Z,97215.29
2018-09-16T04:05:04.739Z,97215.72
2018-09-16T04:08:28.693Z,97212.81
2018-09-16T04:11:52.626Z,97212.33
2018-09-16T04:15:16.594Z,97214.55
2018-09-16T04:18:40.570Z,97214.88
2018-09-16T04:22:04.519Z,97213.03
2018-09-16T04:25:28.384Z,97214.03
2018-09-16T04:28:52.274Z,97212.71
2018-09-16T04:32:16.262Z,97217.27
2018-09-16T04:35:40.279Z,97209.75
2018-09-16T04:39:06.282Z,97202.61
2018-09-16T04:42:30.185Z,97198.20
2018-09-16T04:45:55.253Z,97203.41
2018-09-16T04:49:19.140Z,97206.42
2018-09-16T04:52:43.127Z,97211.79
2018-09-16T04:56:07.761Z,97220.13
2018-09-16T04:59:33.066Z,97233.55
2018-09-16T05:02:56.954Z,97235.30
2018-09-16T05:06:20.876Z,97241.05
2018-09-16T05:09:44.798Z,97241.43
2018-09-16T05:13:08.813Z,97248.31
2018-09-16T05:16:32.853Z,97249.13
2018-09-16T05:20:02.927Z,97246.70
2018-09-16T05:23:26.808Z,97241.86
2018-09-16T05:26:50.789Z,97246.94
2018-09-16T05:30:14.776Z,97258.20
2018-09-16T05:33:38.809Z,97260.65
2018-09-16T05:37:02.771Z,97255.35
2018-09-16T05:40:26.770Z,97261.73
2018-09-16T05:43:50.717Z,97260.19
2018-09-16T05:47:14.607Z,97261.23
2018-09-16T05:50:38.561Z,97266.02
2018-09-16T05:54:02.515Z,97272.12
2018-09-16T05:57:26.376Z,97268.86
2018-09-16T06:00:50.447Z,97269.47
2018-09-16T06:04:14.514Z,97270.17
2018-09-16T06:07:38.448Z,97280.81
2018-09-16T06:11:02.408Z,97270.59
2018-09-16T06:14:26.291Z,97286.11
2018-09-16T06:17:50.254Z,97281.95
2018-09-16T06:21:14.268Z,97285.40
2018-09-16T06:24:38.142Z,97286.34
2018-09-16T06:28:02.025Z,97284.59
2018-09-16T06:31:25.930Z,97291.55
2018-09-16T06:34:49.916Z,97292.02
2018-09-16T06:38:13.837Z,97294.36
2018-09-16T06:41:37.801Z,97288.01
2018-09-16T06:45:02.468Z,97289.97
2018-09-16T06:48:30.008Z,97284.48
2018-09-16T06:51:54.102Z,97283.97
2018-09-16T06:55:18.047Z,97286.12
2018-09-16T06:58:42.126Z,97288.16
2018-09-16T07:02:05.992Z,97288.34
2018-09-16T07:05:29.880Z,97289.31
2018-09-16T07:08:53.792Z,97292.08
2018-09-16T07:12:19.421Z,97295.31
2018-09-16T07:15:45.638Z,97308.63
2018-09-16T07:19:10.342Z,97301.95
2018-09-16T07:22:34.368Z,97304.55
2018-09-16T07:25:58.256Z,97304.73
2018-09-16T07:29:22.180Z,97303.37
2018-09-16T07:32:46.194Z,97311.44
2018-09-16T07:36:10.103Z,97305.81
2018-09-16T07:39:34.038Z,97315.30
2018-09-16T07:42:58.068Z,97320.13
2018-09-16T07:46:21.986Z,97315.88
2018-09-16T07:49:45.913Z,97318.70
2018-09-16T07:53:09.887Z,97319.16
2018-09-16T07:56:33.742Z,97313.23
2018-09-16T07:59:57.628Z,97305.65
2018-09-16T08:03:21.581Z,97309.69
2018-09-16T08:06:45.533Z,97309.17
2018-09-16T08:10:09.559Z,97303.91
2018-09-16T08:13:33.535Z,97304.97
2018-09-16T08:16:57.433Z,97311.50
2018-09-16T08:20:21.417Z,97299.56
2018-09-16T08:23:45.438Z,97299.39
2018-09-16T08:27:09.298Z,97297.94
2018-09-16T08:30:33.219Z,97304.02
2018-09-16T08:34:31.413Z,97294.59
2018-09-16T08:37:56.423Z,97302.60
2018-09-16T08:41:49.224Z,97305.69
2018-09-16T08:45:13.400Z,97311.74
2018-09-16T08:48:37.938Z,97305.56
2018-09-16T08:52:01.973Z,97303.48
2018-09-16T08:55:26.001Z,97300.02
2018-09-16T08:58:49.981Z,97303.58
2018-09-16T09:02:13.938Z,97303.85
2018-09-16T09:05:38.042Z,97305.95
2018-09-16T09:09:02.116Z,97295.47
2018-09-16T09:12:26.160Z,97304.38
2018-09-16T09:15:50.653Z,97299.47
2018-09-16T09:19:14.701Z,97294.80
2018-09-16T09:22:39.248Z,97284.17
2018-09-16T09:26:03.660Z,97285.27
2018-09-16T09:29:28.158Z,97282.89
2018-09-16T09:32:52.602Z,97291.02
2018-09-16T09:36:19.176Z,97291.76
2018-09-16T09:39:43.412Z,97290.53
2018-09-16T09:43:08.120Z,97295.73
2018-09-16T09:46:33.102Z,97295.34
2018-09-16T09:49:58.558Z,97286.53
2018-09-16T09:53:24.928Z,97284.69
2018-09-16T09:56:50.404Z,97283.87
2018-09-16T10:00:19.445Z,97278.56
2018-09-16T10:03:44.386Z,97278.78
2018-09-16T10:07:08.905Z,97273.58
2018-09-16T10:10:34.693Z,97269.99
2018-09-16T10:14:01.741Z,97270.91
2018-09-16T10:17:29.697Z,97272.13
2018-09-16T10:20:55.310Z,97266.53
2018-09-16T10:24:22.325Z,97261.85
2018-09-16T10:31:42.485Z,97252.58
2018-09-16T10:35:09.841Z,97247.08
2018-09-16T10:38:36.391Z,97246.73
2018-09-16T10:42:03.270Z,97244.00
2018-09-16T10:45:29.517Z,97237.84
2018-09-16T10:48:54.068Z,97230.36
2018-09-16T10:52:19.609Z,97225.67
2018-09-16T10:55:45.513Z,97226.41
2018-09-16T10:59:11.046Z,97216.33
2018-09-16T11:06:10.280Z,97213.15
2018-09-16T11:09:37.460Z,97215.08
2018-09-16T11:13:01.824Z,97210.77
2018-09-16T11:16:25.938Z,97207.38
2018-09-16T11:19:50.073Z,97204.47
2018-09-16T11:23:14.394Z,97201.67
2018-09-16T11:26:38.418Z,97204.50
2018-09-16T11:30:02.594Z,97203.50
2018-09-16T11:33:27.484Z,97200.84
2018-09-16T11:36:51.659Z,97200.87
2018-09-16T11:40:15.843Z,97199.45
2018-09-16T11:43:39.884Z,97193.77
2018-09-16T11:47:03.989Z,97197.73
2018-09-16T11:50:28.100Z,97198.42
2018-09-16T11:53:53.048Z,97194.25
2018-09-16T11:57:17.330Z,97188.86
2018-09-16T12:00:41.330Z,97185.97
2018-09-16T12:04:05.428Z,97184.95
2018-09-16T12:07:30.544Z,97174.61
2018-09-16T12:10:54.754Z,97164.13
2018-09-16T12:14:20.113Z,97152.88
2018-09-16T12:17:44.390Z,97157.17
2018-09-16T12:21:08.462Z,97154.67
2018-09-16T12:24:33.538Z,97153.86
2018-09-16T12:27:57.726Z,97151.64
2018-09-16T12:31:21.938Z,97152.96
2018-09-16T12:34:46.023Z,97142.46
2018-09-16T12:38:10.416Z,97140.63
2018-09-16T12:41:34.421Z,97141.23
2018-09-16T12:44:58.440Z,97140.06
2018-09-16T12:48:22.884Z,97134.04
2018-09-16T12:51:47.171Z,97148.61
2018-09-16T12:55:11.228Z,97142.52
2018-09-16T12:58:35.358Z,97134.80
2018-09-16T13:01:59.373Z,97135.26
2018-09-16T13:05:23.593Z,97126.34
2018-09-16T13:08:47.673Z,97121.70
2018-09-16T13:12:11.714Z,97119.61
2018-09-16T13:15:35.951Z,97116.81
2018-09-16T13:19:03.458Z,97114.66
2018-09-16T13:22:27.734Z,97119.91
2018-09-16T13:25:51.792Z,97113.03
2018-09-16T13:29:15.913Z,97111.48
2018-09-16T13:32:40.582Z,97118.26
2018-09-16T13:36:04.736Z,97109.55
2018-09-16T13:39:28.766Z,97109.83
2018-09-16T13:42:52.886Z,97113.64
2018-09-16T13:46:17.223Z,97108.28
2018-09-16T13:49:41.783Z,97099.75
2018-09-16T13:53:06.020Z,97099.49
2018-09-16T13:56:30.118Z,97093.97
2018-09-16T13:59:54.512Z,97096.11
2018-09-16T14:03:18.929Z,97093.06
2018-09-16T14:06:43.279Z,97083.91
2018-09-16T14:10:07.450Z,97087.44
2018-09-16T14:13:31.706Z,97080.30
2018-09-16T14:16:55.856Z,97076.39
2018-09-16T14:20:20.778Z,97075.35
2018-09-16T14:23:44.814Z,97070.58
2018-09-16T14:27:08.849Z,97070.09
2018-09-16T14:30:33.843Z,97063.41
2018-09-16T14:33:58.206Z,97067.06
2018-09-16T14:37:22.746Z,97064.81
2018-09-16T14:40:47.052Z,97069.50
2018-09-16T14:44:14.073Z,97059.89
2018-09-16T14:47:58.139Z,97060.98
2018-09-16T14:51:28.492Z,97062.78
2018-09-16T14:55:25.010Z,97063.77
2018-09-16T14:58:53.906Z,97060.34
2018-09-16T15:02:23.473Z,97057.45
2018-09-16T15:05:50.211Z,97046.97
2018-09-16T15:09:14.663Z,97047.77
2018-09-16T15:16:20.719Z,97047.44
2018-09-16T15:19:45.002Z,97042.71
2018-09-16T15:23:10.356Z,97041.53
2018-09-16T15:26:34.524Z,97038.34
2018-09-16T15:29:58.957Z,97036.11
2018-09-16T15:33:23.009Z,97037.14
2018-09-16T15:36:47.259Z,97036.25
2018-09-16T15:40:11.843Z,97040.70
2018-09-16T15:43:36.595Z,97037.02
2018-09-16T15:47:02.352Z,97041.80
2018-09-16T15:50:28.927Z,97042.09
2018-09-16T16:52:01.819Z,97059.20
2018-09-16T16:55:36.498Z,97058.02
2018-09-16T17:03:16.156Z,97059.91
2018-09-16T19:07:25.968Z,97172.00
2018-09-16T23:08:22.761Z,97181.91
2018-09-16T23:12:51.037Z,97190.44
2018-09-16T23:20:59.255Z,97179.48
2018-09-16T23:25:17.257Z,97184.68
2018-09-16T23:28:55.689Z,97180.52
2018-09-16T23:32:26.193Z,97184.14
2018-09-16T23:38:11.281Z,97187.79
2018-09-16T23:41:58.962Z,97187.38
2018-09-16T23:46:20.156Z,97181.02
2018-09-16T23:50:02.656Z,97186.29
